KHLG/HLG METAR and TAF weather

Enter ICAO airport designator
Station Type Date Time Source
KHLG METAR 2019/08/24 21:53 UTC NOAA

KHLG 242153Z 02004KT 10SM CLR 23/09 A3019 RMK AO2 SLP223 T02280094


Station Type Date Time Source
KHLG Decoded METAR 2019/08/24 21:53 UTC NOAA

Station name not available
Aug 24, 2019 - 05:53 PM EDT / 2019.08.24 2153 UTC
Wind: from the NNE (020 degrees) at 5 MPH (4 KT):0
Visibility: 10 mile(s):0
Sky conditions: clear
Temperature: 73.0 F (22.8 C)
Dew Point: 48.9 F (9.4 C)
Relative Humidity: 42%
Pressure (altimeter): 30.19 in. Hg (1022 hPa)
ob: KHLG 242153Z 02004KT 10SM CLR 23/09 A3019 RMK AO2 SLP223 T02280094
cycle: 22

Station Type Date Time Source
KHLG TAF 2019/08/24 18:34 UTC NOAA

TAF KHLG 241732Z 2418/2518 05009KT P6SM SCT060
FM250000 08005KT P6SM SKC
FM251200 10009KT P6SM SCT250

Example: see airport list